Airfield :
LOGIN :

Register | Disclaimer

   EN    FR    IT 

 










Legend :    VFR   Marginal VFR   IFR   Intensive IFR   Very Intensive IFR
Visi :
Ceiling :
>= 8 km
>= 3000ft
5 to 8 km
1000 to 3000 ft
1500m to 5 km
500 to 1000 ft
800 to 1500m
200 to 500 ft
< 800m
< 200 ft
Symbols :   Thunderstorms  Fog  Heavy snow  Heavy precipitations  Wind > 20 kt
SIGMETs :     Misc.  Thunderstorms  Icing  Turbulence  Mountain Waves  Volcanic Ashes






- Airport Elevation : 31 ft
- IATA code : INV


EGPE - Inverness

CURRENT METAR :
  • 080920Z 22015KT 9999 -SHRA FEW020 SCT035 BKN045 11/07 Q1020

EXPIRED METARs :
  • 080850Z 22014KT 9999 VCSH FEW020 SCT035 BKN047 11/07 Q1020
  • 080820Z 21014KT 9999 -SHRA FEW020 SCT043 11/06 Q1020
  • 080750Z 22016KT 9999 VCSH FEW020 SCT040 10/06 Q1020
  • 080720Z 22015KT 9999 VCSH FEW020 SCT034 10/06 Q1020

TAF TAF EGPE
Valid from the 08 at 09:00 until the 08 at 18:00 UTC


080755Z 0809/0818 22010KT 9999 SCT040
TEMPO 0809/0811 22016G26KT
PROB40
TEMPO 0809/0815 3000 DZ BKN005
BECMG 0812/0815 02008KT
ATIS : +44 1667 464 255



MET'MAP, your aeronautical weather chart ! - Copyright ORBIFLY December 2007 - Disclaimer

ORBIFLY MET'MAP TEAM :

Programming & Development : Alexandra Zaïnal
Concept & original design : Baudouin d'Aumeries
Assistance for programming : Marc-Olivier Méhu
Technical & hardware support : Manuel Goepfert

Contact : metmap@orbifly.com




SOURCES & CREDITS :

   NOAA